Terminal Aerodrome Forecast
Issued by NWS

Home | Current Version | Previous Version | Graphics & Text | Print | Product List | Glossary Off
Versions: 1 2 3 4 5 6 7 8 9 10 11 12 13 14 15 16 17 18 19 20 21 22 23 24 25 26 27 28 29 30

000
FTUS43 KLOT 211300 AAA
TAFORD
TAF AMD
KORD 211359Z 2114/2218 22009KT P6SM BKN080 BKN150
     FM211900 25011G16KT P6SM VCSH SCT050 BKN080
     FM212100 26011G17KT 5SM SHRA BKN050 OVC100
      TEMPO 2121/2124 3SM TSRA BKN035CB
     FM220200 33010KT P6SM SCT040
     FM221500 34013G19KT P6SM FEW250=

USA.gov is the U.S. government's official web portal to all federal, state and local government web resources and services.